Time;durP1;ratioP1;P1;durP2;ratioP2;P2;SDS_P1;SDS_P2;PMS_P1;PMS_P2;Temp;Humidity;BMP_temperature;BMP_pressure;BME280_temperature;BME280_humidity;BME280_pressure;Samples;Min_cycle;Max_cycle;Signal;HPM_P1;HPM_P2
2022/02/06 00:01:57;;;;;;;3.70;2.47;;;;;;;;;;5023093;28;20446;-80
2022/02/06 00:04:23;;;;;;;3.93;2.10;;;;;;;;;;5021181;28;20407;-79
2022/02/06 00:06:49;;;;;;;2.70;2.20;;;;;;;;;;5021049;28;20404;-79
2022/02/06 00:09:15;;;;;;;2.87;1.70;;;;;;;;;;5021324;28;20396;-80
2022/02/06 00:11:41;;;;;;;8.03;1.90;;;;;;;;;;5021051;28;20411;-80
2022/02/06 00:14:07;;;;;;;7.93;2.07;;;;;;;;;;5020835;28;20463;-80
2022/02/06 00:16:33;;;;;;;3.77;1.73;;;;;;;;;;5020579;28;20403;-79
2022/02/06 00:18:59;;;;;;;4.83;1.80;;;;;;;;;;5020299;28;20411;-79
2022/02/06 00:21:26;;;;;;;8.63;2.73;;;;;;;;;;5020587;28;20938;-78
2022/02/06 00:23:54;;;;;;;5.23;2.53;;;;;;;;;;5020770;28;20502;-79
2022/02/06 00:29:40;;;;;;;3.87;2.50;;;;;;;;;;5020833;28;20401;-79
2022/02/06 00:31:46;;;;;;;3.00;1.77;;;;;;;;;;5015918;28;20415;-79
2022/02/06 00:39:42;;;;;;;2.53;1.80;;;;;;;;;;5019467;28;20422;-79
2022/02/06 00:42:08;;;;;;;5.63;1.70;;;;;;;;;;5018724;28;20403;-78
2022/02/06 00:44:34;;;;;;;4.03;2.03;;;;;;;;;;5018169;28;20457;-79
2022/02/06 00:47:02;;;;;;;8.87;2.10;;;;;;;;;;5020813;28;20457;-79
2022/02/06 00:49:30;;;;;;;2.63;1.53;;;;;;;;;;5020638;28;21026;-80
2022/02/06 00:52:16;;;;;;;3.10;1.90;;;;;;;;;;5020194;28;20428;-80
2022/02/06 00:54:42;;;;;;;3.40;2.07;;;;;;;;;;5020013;28;20384;-80
2022/02/06 00:57:09;;;;;;;3.30;1.97;;;;;;;;;;5019440;28;20899;-80
2022/02/06 00:59:35;;;;;;;3.43;2.70;;;;;;;;;;5018998;28;20423;-80
2022/02/06 01:02:01;;;;;;;5.53;1.90;;;;;;;;;;5020059;28;20448;-80
2022/02/06 01:04:33;;;;;;;3.40;1.60;;;;;;;;;;5019684;28;20471;-79
2022/02/06 01:06:59;;;;;;;4.20;1.53;;;;;;;;;;5020251;28;20385;-80
2022/02/06 01:09:25;;;;;;;4.67;2.00;;;;;;;;;;5019698;28;20414;-80
2022/02/06 01:11:53;;;;;;;4.87;2.03;;;;;;;;;;5019406;28;20411;-80
2022/02/06 01:17:33;;;;;;;4.13;1.83;;;;;;;;;;5008818;28;20824;-79
2022/02/06 01:22:28;;;;;;;3.23;1.90;;;;;;;;;;5017351;28;20447;-78
2022/02/06 01:25:06;;;;;;;5.73;1.60;;;;;;;;;;5017081;28;20492;-78
2022/02/06 01:27:41;;;;;;;4.87;1.70;;;;;;;;;;5018217;28;20390;-79
2022/02/06 01:30:55;;;;;;;2.40;1.57;;;;;;;;;;5019888;28;20435;-79
2022/02/06 01:33:02;;;;;;;2.20;1.57;;;;;;;;;;5017127;28;20454;-78
2022/02/06 01:35:58;;;;;;;6.20;2.53;;;;;;;;;;5019754;28;20380;-79
2022/02/06 01:38:33;;;;;;;4.00;1.50;;;;;;;;;;5018839;28;20496;-79
2022/02/06 01:41:12;;;;;;;4.13;1.80;;;;;;;;;;5019653;28;20455;-80
2022/02/06 01:43:44;;;;;;;5.60;2.13;;;;;;;;;;5021372;28;20887;-79
2022/02/06 02:18:22;;;;;;;4.00;2.00;;;;;;;;;;5018808;28;20400;-79
2022/02/06 02:26:39;;;;;;;3.90;1.60;;;;;;;;;;5006278;28;20436;-79
2022/02/06 02:45:36;;;;;;;3.77;1.60;;;;;;;;;;4998966;28;20477;-79
2022/02/06 02:48:04;;;;;;;3.90;1.83;;;;;;;;;;4998953;28;20826;-79
2022/02/06 02:50:33;;;;;;;4.60;1.50;;;;;;;;;;4998487;28;20455;-79
2022/02/06 02:53:18;;;;;;;4.20;1.80;;;;;;;;;;4998709;28;20397;-79
2022/02/06 02:55:57;;;;;;;6.17;1.93;;;;;;;;;;4998961;28;20870;-79
2022/02/06 03:03:50;;;;;;;3.50;1.67;;;;;;;;;;4998159;28;20413;-79
2022/02/06 03:06:10;;;;;;;4.03;1.60;;;;;;;;;;4997579;28;20424;-79
2022/02/06 03:08:37;;;;;;;6.60;1.67;;;;;;;;;;4998627;28;20575;-79
2022/02/06 03:11:08;;;;;;;11.57;1.67;;;;;;;;;;4998691;28;20424;-79
2022/02/06 03:19:04;;;;;;;4.03;1.90;;;;;;;;;;4998703;28;20397;-79
2022/02/06 03:21:30;;;;;;;5.70;1.57;;;;;;;;;;4998569;28;20483;-79
2022/02/06 03:24:05;;;;;;;3.77;1.70;;;;;;;;;;5002242;28;20401;-79
2022/02/06 03:26:31;;;;;;;4.80;1.60;;;;;;;;;;5001564;28;20415;-79
2022/02/06 03:28:58;;;;;;;6.13;1.60;;;;;;;;;;5003212;28;20405;-79
2022/02/06 03:31:24;;;;;;;4.00;1.57;;;;;;;;;;5002915;28;20467;-78
2022/02/06 03:33:51;;;;;;;7.37;2.03;;;;;;;;;;5001820;28;20438;-79
2022/02/06 03:36:17;;;;;;;5.73;1.60;;;;;;;;;;5002245;28;20464;-79
2022/02/06 03:38:46;;;;;;;5.00;2.17;;;;;;;;;;5001951;28;20491;-79
2022/02/06 03:41:13;;;;;;;9.10;2.20;;;;;;;;;;5000888;28;20833;-78
2022/02/06 03:46:13;;;;;;;9.00;3.20;;;;;;;;;;5001679;28;20419;-78
2022/02/06 03:51:17;;;;;;;3.90;1.43;;;;;;;;;;5001927;28;20444;-78
2022/02/06 03:53:44;;;;;;;2.93;1.50;;;;;;;;;;5001522;28;20416;-78
2022/02/06 03:56:10;;;;;;;5.10;2.00;;;;;;;;;;5005218;28;20436;-78
2022/02/06 03:58:36;;;;;;;4.30;2.03;;;;;;;;;;5020836;28;20435;-79
2022/02/06 04:01:02;;;;;;;3.93;1.60;;;;;;;;;;5013794;28;20534;-79
2022/02/06 04:03:29;;;;;;;7.33;1.77;;;;;;;;;;5000873;28;20441;-78
2022/02/06 04:05:55;;;;;;;5.30;1.83;;;;;;;;;;5000793;28;20405;-78
2022/02/06 04:08:21;;;;;;;5.40;1.80;;;;;;;;;;5000181;28;20421;-79
2022/02/06 04:10:50;;;;;;;2.90;1.80;;;;;;;;;;5001895;28;20515;-78
2022/02/06 04:13:20;;;;;;;11.03;1.67;;;;;;;;;;5000657;28;20411;-78
2022/02/06 04:15:50;;;;;;;3.70;1.80;;;;;;;;;;5001270;28;20489;-78
2022/02/06 04:18:24;;;;;;;6.87;1.80;;;;;;;;;;5000809;28;20432;-78
2022/02/06 04:20:50;;;;;;;2.53;1.70;;;;;;;;;;5000825;28;20507;-78
2022/02/06 04:23:16;;;;;;;12.60;2.67;;;;;;;;;;5001160;28;20408;-78
2022/02/06 04:25:42;;;;;;;4.47;2.43;;;;;;;;;;5003241;28;20400;-78
2022/02/06 04:28:08;;;;;;;6.67;1.70;;;;;;;;;;5000956;28;20424;-78
2022/02/06 04:30:34;;;;;;;3.60;1.90;;;;;;;;;;5001323;28;20425;-78
2022/02/06 04:33:00;;;;;;;2.87;1.70;;;;;;;;;;5001449;28;20469;-78
2022/02/06 04:35:32;;;;;;;2.43;1.43;;;;;;;;;;5002266;28;20405;-78
2022/02/06 04:46:23;;;;;;;4.67;1.60;;;;;;;;;;5004878;28;20442;-78
2022/02/06 04:55:00;;;;;;;4.90;1.87;;;;;;;;;;5020133;28;20761;-77
2022/02/06 05:33:24;;;;;;;10.17;2.13;;;;;;;;;;5029304;28;20407;-78
2022/02/06 05:35:50;;;;;;;5.73;1.73;;;;;;;;;;5036609;28;20404;-77
2022/02/06 05:38:17;;;;;;;4.53;1.50;;;;;;;;;;5025141;28;20449;-79
2022/02/06 05:40:43;;;;;;;2.93;1.60;;;;;;;;;;5019924;28;20464;-79
2022/02/06 05:43:09;;;;;;;2.07;1.20;;;;;;;;;;5018949;28;20400;-79
2022/02/06 05:45:35;;;;;;;4.33;1.93;;;;;;;;;;5018244;28;20438;-79
2022/02/06 05:48:01;;;;;;;3.90;1.50;;;;;;;;;;5019996;28;20412;-80
2022/02/06 05:50:27;;;;;;;3.80;1.23;;;;;;;;;;5034942;23;20561;-80
2022/02/06 05:52:53;;;;;;;4.27;1.60;;;;;;;;;;5042584;28;20477;-80
2022/02/06 05:55:21;;;;;;;3.87;1.37;;;;;;;;;;5042332;28;20922;-80
2022/02/06 05:57:47;;;;;;;3.90;1.60;;;;;;;;;;5043654;28;20398;-80
2022/02/06 06:00:13;;;;;;;5.37;1.47;;;;;;;;;;5041928;28;20455;-80
2022/02/06 06:02:39;;;;;;;2.17;1.13;;;;;;;;;;5043048;28;20812;-80
2022/02/06 06:05:06;;;;;;;4.20;1.30;;;;;;;;;;5042782;28;20406;-80
2022/02/06 06:07:32;;;;;;;3.40;1.40;;;;;;;;;;5043858;28;20407;-80
2022/02/06 06:09:58;;;;;;;3.63;1.87;;;;;;;;;;5043751;28;20429;-80
2022/02/06 06:12:24;;;;;;;1.83;1.37;;;;;;;;;;5043326;28;20482;-80
2022/02/06 06:14:50;;;;;;;2.73;1.43;;;;;;;;;;5042640;28;20403;-80
2022/02/06 06:17:16;;;;;;;5.10;1.20;;;;;;;;;;5043146;28;20406;-80
2022/02/06 06:19:46;;;;;;;5.90;1.60;;;;;;;;;;5043192;28;20402;-80
2022/02/06 06:22:13;;;;;;;3.70;1.70;;;;;;;;;;5042190;28;20457;-80
2022/02/06 06:24:45;;;;;;;2.07;1.27;;;;;;;;;;5050760;28;20390;-80
2022/02/06 06:27:11;;;;;;;6.40;1.60;;;;;;;;;;5045576;28;20414;-79
2022/02/06 06:29:37;;;;;;;3.10;1.30;;;;;;;;;;5036832;28;20415;-80
2022/02/06 06:32:04;;;;;;;4.30;1.50;;;;;;;;;;5037587;28;20915;-79
2022/02/06 06:34:30;;;;;;;3.47;1.30;;;;;;;;;;5040182;28;20403;-80
2022/02/06 06:36:56;;;;;;;2.40;1.30;;;;;;;;;;5040595;28;20395;-79
2022/02/06 06:39:34;;;;;;;5.33;1.80;;;;;;;;;;5039384;28;20422;-80
2022/02/06 06:42:01;;;;;;;4.27;1.60;;;;;;;;;;5040561;28;20477;-79
2022/02/06 06:44:27;;;;;;;6.63;1.40;;;;;;;;;;5040884;28;20427;-80
2022/02/06 06:46:53;;;;;;;4.20;1.50;;;;;;;;;;5039386;28;20465;-80
2022/02/06 06:49:19;;;;;;;3.80;1.70;;;;;;;;;;5041005;28;20411;-80
2022/02/06 06:51:46;;;;;;;2.93;1.20;;;;;;;;;;5041622;28;20470;-80
2022/02/06 06:54:16;;;;;;;5.83;1.77;;;;;;;;;;5040683;28;20439;-80
2022/02/06 06:56:56;;;;;;;4.10;1.63;;;;;;;;;;5042044;28;20399;-79
2022/02/06 07:02:19;;;;;;;5.43;1.63;;;;;;;;;;5036699;28;20461;-80
2022/02/06 07:04:49;;;;;;;3.00;1.40;;;;;;;;;;5045846;28;20394;-80
2022/02/06 07:07:15;;;;;;;2.60;1.40;;;;;;;;;;5044452;28;20415;-80
2022/02/06 07:09:42;;;;;;;1.93;1.53;;;;;;;;;;5050062;28;20497;-80
2022/02/06 07:12:10;;;;;;;2.43;1.43;;;;;;;;;;5044291;28;20414;-79
2022/02/06 07:14:36;;;;;;;1.67;1.23;;;;;;;;;;5045924;28;20409;-79
2022/02/06 07:17:03;;;;;;;2.37;1.13;;;;;;;;;;5043808;28;20426;-80
2022/02/06 07:19:29;;;;;;;3.00;1.30;;;;;;;;;;5038054;28;20415;-79
2022/02/06 07:21:56;;;;;;;2.87;1.30;;;;;;;;;;5037310;28;20460;-79
2022/02/06 07:24:25;;;;;;;1.80;1.30;;;;;;;;;;5029874;28;20469;-79
2022/02/06 07:26:54;;;;;;;1.80;1.30;;;;;;;;;;5039790;28;20390;-80
2022/02/06 07:29:22;;;;;;;3.10;1.20;;;;;;;;;;5038125;28;20965;-79
2022/02/06 07:31:48;;;;;;;3.33;1.50;;;;;;;;;;5038994;28;20496;-79
2022/02/06 07:34:14;;;;;;;2.97;1.50;;;;;;;;;;5039505;28;20866;-79
2022/02/06 07:36:40;;;;;;;1.83;1.20;;;;;;;;;;5039577;28;20863;-80
2022/02/06 07:39:06;;;;;;;1.80;1.10;;;;;;;;;;5043313;28;20972;-80
2022/02/06 07:41:33;;;;;;;3.40;1.50;;;;;;;;;;5042097;28;20454;-78
2022/02/06 07:43:59;;;;;;;2.10;1.30;;;;;;;;;;5042841;28;20407;-80
2022/02/06 07:46:30;;;;;;;2.53;1.83;;;;;;;;;;5039117;28;20414;-80
2022/02/06 07:49:02;;;;;;;3.43;1.40;;;;;;;;;;5039019;28;20441;-81
2022/02/06 07:51:29;;;;;;;1.83;1.30;;;;;;;;;;5040761;28;21047;-81
2022/02/06 07:53:55;;;;;;;2.20;1.43;;;;;;;;;;5041305;28;20744;-80
2022/02/06 07:56:21;;;;;;;2.43;1.47;;;;;;;;;;5039247;28;20851;-81
2022/02/06 07:58:47;;;;;;;4.67;1.33;;;;;;;;;;5038979;28;20402;-81
2022/02/06 08:01:13;;;;;;;2.73;1.87;;;;;;;;;;5040064;28;20482;-81
2022/02/06 08:03:39;;;;;;;3.67;1.60;;;;;;;;;;5038361;28;20407;-80
2022/02/06 08:06:05;;;;;;;4.00;1.43;;;;;;;;;;5039381;28;20423;-81
2022/02/06 08:08:31;;;;;;;6.10;1.67;;;;;;;;;;5040907;28;20411;-82
2022/02/06 08:11:01;;;;;;;3.37;1.30;;;;;;;;;;5039896;28;20534;-79
2022/02/06 08:14:48;;;;;;;6.80;2.17;;;;;;;;;;5040614;28;20917;-79
2022/02/06 08:16:14;;;;;;;2.93;1.43;;;;;;;;;;5034069;28;20427;-79
2022/02/06 08:18:41;;;;;;;2.10;1.30;;;;;;;;;;5041335;28;20565;-79
2022/02/06 08:21:08;;;;;;;4.00;1.50;;;;;;;;;;5039126;28;20457;-80
2022/02/06 08:23:34;;;;;;;2.10;1.00;;;;;;;;;;5040322;28;20403;-80
2022/02/06 08:26:00;;;;;;;2.03;1.20;;;;;;;;;;5039944;28;20418;-80
2022/02/06 08:28:26;;;;;;;3.10;1.43;;;;;;;;;;5039652;28;20474;-81
2022/02/06 08:30:52;;;;;;;3.57;1.70;;;;;;;;;;5040193;28;20434;-81
2022/02/06 08:33:18;;;;;;;3.13;1.40;;;;;;;;;;5038497;28;20419;-80
2022/02/06 08:35:49;;;;;;;2.53;1.40;;;;;;;;;;5037397;28;20522;-80
2022/02/06 08:38:15;;;;;;;1.70;1.13;;;;;;;;;;5038886;28;20406;-80
2022/02/06 08:40:41;;;;;;;4.50;1.80;;;;;;;;;;5038587;28;20493;-80
2022/02/06 08:43:08;;;;;;;4.50;1.33;;;;;;;;;;5038894;28;20406;-80
2022/02/06 08:45:35;;;;;;;2.10;1.50;;;;;;;;;;5039097;28;20414;-80
2022/02/06 08:48:01;;;;;;;1.80;1.20;;;;;;;;;;5039279;28;20399;-80
2022/02/06 08:50:27;;;;;;;4.97;1.60;;;;;;;;;;5039407;28;20459;-80
2022/02/06 08:52:57;;;;;;;4.70;1.40;;;;;;;;;;5038034;28;20406;-81
2022/02/06 08:55:23;;;;;;;3.90;1.43;;;;;;;;;;5037623;28;20418;-80
2022/02/06 08:57:51;;;;;;;2.77;1.50;;;;;;;;;;5039679;28;20406;-80
2022/02/06 09:00:22;;;;;;;3.57;1.40;;;;;;;;;;5037424;28;20537;-78
2022/02/06 09:02:48;;;;;;;7.70;1.50;;;;;;;;;;5038407;28;20442;-80
2022/02/06 09:05:15;;;;;;;2.00;1.17;;;;;;;;;;5039325;28;20398;-79
2022/02/06 09:07:42;;;;;;;3.60;1.40;;;;;;;;;;5037641;28;20410;-79
2022/02/06 09:10:14;;;;;;;4.13;1.67;;;;;;;;;;5037943;28;20856;-79
2022/02/06 09:12:44;;;;;;;2.97;1.30;;;;;;;;;;5038333;28;20426;-79
2022/02/06 09:15:14;;;;;;;1.63;1.10;;;;;;;;;;5040176;28;20395;-80
2022/02/06 09:17:40;;;;;;;3.97;1.60;;;;;;;;;;5040361;28;20403;-80
2022/02/06 09:20:06;;;;;;;4.30;1.70;;;;;;;;;;5038046;28;20514;-80
2022/02/06 09:22:32;;;;;;;3.13;1.40;;;;;;;;;;5039555;28;20887;-79
2022/02/06 09:24:58;;;;;;;3.63;1.67;;;;;;;;;;5040146;28;20791;-79
2022/02/06 09:27:24;;;;;;;1.80;1.10;;;;;;;;;;5040432;28;20490;-79
2022/02/06 09:29:51;;;;;;;6.70;1.47;;;;;;;;;;5038742;28;20402;-79
2022/02/06 09:37:10;;;;;;;4.73;1.30;;;;;;;;;;5040575;28;20473;-80
2022/02/06 09:39:40;;;;;;;4.53;1.57;;;;;;;;;;5040335;28;20486;-79
2022/02/06 09:42:06;;;;;;;4.50;1.77;;;;;;;;;;5039517;28;20453;-80
2022/02/06 09:44:33;;;;;;;6.83;1.57;;;;;;;;;;5039941;28;20403;-80
2022/02/06 09:47:00;;;;;;;3.17;1.43;;;;;;;;;;5040323;28;20423;-79
2022/02/06 09:49:28;;;;;;;2.40;1.60;;;;;;;;;;5039824;28;20429;-80
2022/02/06 09:51:55;;;;;;;2.57;1.83;;;;;;;;;;5040254;28;20454;-80
2022/02/06 09:54:24;;;;;;;3.87;1.43;;;;;;;;;;5042677;28;20421;-79
2022/02/06 09:56:55;;;;;;;2.80;1.17;;;;;;;;;;5044519;28;20410;-79
2022/02/06 09:59:30;;;;;;;2.53;1.27;;;;;;;;;;5042707;28;20505;-79
2022/02/06 10:01:57;;;;;;;2.53;1.43;;;;;;;;;;5041088;28;20507;-79
2022/02/06 10:04:24;;;;;;;4.10;1.53;;;;;;;;;;5038141;28;20411;-79
2022/02/06 10:06:58;;;;;;;4.50;1.50;;;;;;;;;;5039124;28;20410;-79
2022/02/06 10:09:47;;;;;;;2.40;1.20;;;;;;;;;;5039223;28;20476;-79
2022/02/06 10:12:15;;;;;;;4.63;1.37;;;;;;;;;;5024922;28;20459;-79
2022/02/06 10:14:41;;;;;;;3.80;1.40;;;;;;;;;;5039371;28;20399;-80
2022/02/06 10:17:07;;;;;;;3.47;1.40;;;;;;;;;;5038734;28;20439;-80
2022/02/06 10:19:36;;;;;;;4.57;1.67;;;;;;;;;;5039345;28;20447;-80
2022/02/06 10:22:25;;;;;;;4.60;1.20;;;;;;;;;;5041315;28;20453;-79
2022/02/06 10:24:58;;;;;;;12.20;1.63;;;;;;;;;;5040468;28;20875;-80
2022/02/06 10:27:45;;;;;;;2.30;1.13;;;;;;;;;;5037758;28;20437;-80
2022/02/06 10:30:19;;;;;;;4.47;1.27;;;;;;;;;;5037340;28;20422;-80
2022/02/06 10:32:46;;;;;;;1.87;1.30;;;;;;;;;;5036756;28;20403;-80
2022/02/06 10:35:12;;;;;;;3.50;1.40;;;;;;;;;;5039180;28;20478;-79
2022/02/06 10:37:38;;;;;;;6.13;1.40;;;;;;;;;;5039468;28;20434;-80
2022/02/06 10:40:07;;;;;;;3.93;1.23;;;;;;;;;;5038723;28;20934;-79
2022/02/06 10:42:36;;;;;;;3.30;1.33;;;;;;;;;;5036411;28;20415;-80
2022/02/06 10:45:11;;;;;;;5.43;1.70;;;;;;;;;;5038345;28;20829;-79
2022/02/06 10:47:38;;;;;;;2.70;1.17;;;;;;;;;;5036436;28;20406;-79
2022/02/06 10:50:14;;;;;;;2.30;1.40;;;;;;;;;;5038590;28;20419;-79
2022/02/06 10:52:43;;;;;;;4.20;1.53;;;;;;;;;;5036329;28;20452;-80
2022/02/06 10:55:10;;;;;;;2.80;1.80;;;;;;;;;;5038602;28;20399;-80
2022/02/06 10:57:37;;;;;;;4.47;1.50;;;;;;;;;;5038688;28;20413;-80
2022/02/06 11:00:04;;;;;;;5.50;1.33;;;;;;;;;;5039012;28;20430;-80
2022/02/06 11:02:32;;;;;;;3.40;1.50;;;;;;;;;;5038691;28;20407;-80
2022/02/06 11:05:00;;;;;;;2.97;1.33;;;;;;;;;;5039261;28;20903;-80
2022/02/06 11:07:26;;;;;;;8.10;1.40;;;;;;;;;;5037229;28;20495;-80
2022/02/06 11:10:05;;;;;;;7.03;1.63;;;;;;;;;;5039589;28;20395;-79
2022/02/06 11:12:31;;;;;;;8.17;3.10;;;;;;;;;;5038844;28;20900;-80
2022/02/06 11:15:01;;;;;;;3.43;1.63;;;;;;;;;;5038118;28;20415;-80
2022/02/06 11:17:32;;;;;;;3.50;1.60;;;;;;;;;;5039872;28;20485;-80
2022/02/06 11:19:58;;;;;;;3.13;1.50;;;;;;;;;;5039980;28;20438;-80
2022/02/06 11:22:25;;;;;;;2.50;1.40;;;;;;;;;;5037090;28;20465;-80
2022/02/06 11:24:51;;;;;;;3.43;1.90;;;;;;;;;;5037988;28;20407;-80
2022/02/06 11:27:17;;;;;;;2.43;1.70;;;;;;;;;;5036650;28;20509;-80
2022/02/06 11:29:43;;;;;;;2.40;1.60;;;;;;;;;;5038101;28;20436;-80
2022/02/06 11:32:11;;;;;;;2.30;1.40;;;;;;;;;;5036472;28;20410;-80
2022/02/06 11:34:41;;;;;;;4.50;1.50;;;;;;;;;;5038409;28;20417;-80
2022/02/06 11:46:01;;;;;;;3.63;1.40;;;;;;;;;;5041284;28;20909;-80
2022/02/06 11:48:29;;;;;;;3.20;1.40;;;;;;;;;;5039856;28;20929;-79
2022/02/06 11:50:55;;;;;;;3.50;1.57;;;;;;;;;;5052417;23;20481;-79
2022/02/06 11:53:27;;;;;;;3.00;1.53;;;;;;;;;;5038834;28;20426;-79
2022/02/06 11:55:54;;;;;;;2.87;1.30;;;;;;;;;;5040501;28;20399;-80
2022/02/06 11:58:25;;;;;;;3.47;1.30;;;;;;;;;;5040425;28;20403;-79
2022/02/06 12:01:06;;;;;;;5.23;2.13;;;;;;;;;;5040195;28;20454;-79
2022/02/06 12:03:49;;;;;;;3.70;1.83;;;;;;;;;;5040506;28;20407;-80
2022/02/06 12:06:15;;;;;;;4.23;1.67;;;;;;;;;;5040132;28;20410;-80
2022/02/06 12:08:45;;;;;;;2.40;1.40;;;;;;;;;;5040052;28;20903;-80
2022/02/06 12:11:11;;;;;;;6.30;1.80;;;;;;;;;;5040859;28;20419;-80
2022/02/06 12:13:38;;;;;;;3.63;1.43;;;;;;;;;;5040356;28;20423;-79
2022/02/06 12:16:06;;;;;;;3.80;1.70;;;;;;;;;;5040663;28;20430;-80
2022/02/06 12:18:37;;;;;;;3.20;1.20;;;;;;;;;;5040045;28;20898;-80
2022/02/06 12:21:14;;;;;;;5.57;1.70;;;;;;;;;;5040002;28;21021;-80
2022/02/06 12:23:41;;;;;;;4.30;1.70;;;;;;;;;;5040078;28;20406;-80
2022/02/06 12:26:30;;;;;;;4.30;1.63;;;;;;;;;;5039860;28;20480;-80
2022/02/06 12:28:56;;;;;;;2.23;1.20;;;;;;;;;;5039682;28;20471;-80
2022/02/06 12:31:31;;;;;;;3.67;1.37;;;;;;;;;;5040037;28;20496;-80
2022/02/06 12:39:25;;;;;;;2.67;1.23;;;;;;;;;;5039595;28;20440;-80
2022/02/06 12:41:52;;;;;;;3.40;1.30;;;;;;;;;;5039784;28;20462;-80
2022/02/06 12:44:19;;;;;;;1.60;1.00;;;;;;;;;;5039420;28;20794;-80
2022/02/06 12:46:47;;;;;;;2.87;1.10;;;;;;;;;;5039383;28;20906;-80
2022/02/06 12:49:15;;;;;;;4.57;1.80;;;;;;;;;;5039451;28;20403;-80
2022/02/06 12:51:42;;;;;;;2.47;1.80;;;;;;;;;;5038828;28;20446;-79
2022/02/06 12:54:10;;;;;;;5.17;1.63;;;;;;;;;;5038180;28;20467;-80
2022/02/06 12:56:36;;;;;;;3.47;1.60;;;;;;;;;;5039258;28;20426;-80
2022/02/06 12:59:04;;;;;;;4.10;1.63;;;;;;;;;;5039208;28;20407;-80
2022/02/06 13:01:42;;;;;;;4.17;1.30;;;;;;;;;;5039377;28;20529;-80
2022/02/06 13:04:09;;;;;;;2.77;1.57;;;;;;;;;;5040166;28;20474;-78
2022/02/06 13:06:37;;;;;;;2.67;1.37;;;;;;;;;;5038888;28;20414;-78
2022/02/06 13:09:12;;;;;;;2.80;1.60;;;;;;;;;;5043867;28;20418;-81
2022/02/06 13:20:06;;;;;;;2.30;1.63;;;;;;;;;;5039675;28;20409;-80
2022/02/06 13:23:11;;;;;;;1.90;1.10;;;;;;;;;;5040393;28;20507;-80
2022/02/06 13:25:55;;;;;;;2.77;1.30;;;;;;;;;;5038799;28;20414;-80
2022/02/06 13:28:41;;;;;;;3.60;1.90;;;;;;;;;;5040323;28;20464;-80
2022/02/06 13:33:51;;;;;;;3.40;1.90;;;;;;;;;;5039312;28;20368;-80
2022/02/06 13:39:07;;;;;;;2.43;1.23;;;;;;;;;;5038961;28;20735;-81
2022/02/06 13:41:37;;;;;;;1.83;1.17;;;;;;;;;;5039535;28;20476;-80
2022/02/06 13:44:04;;;;;;;2.30;1.20;;;;;;;;;;5038117;28;20430;-81
2022/02/06 13:46:33;;;;;;;4.30;1.53;;;;;;;;;;5039411;28;20771;-81
2022/02/06 13:49:00;;;;;;;2.47;1.40;;;;;;;;;;5038737;28;20409;-80
2022/02/06 13:51:38;;;;;;;2.50;1.17;;;;;;;;;;5037270;28;20858;-81
2022/02/06 13:54:06;;;;;;;6.33;1.50;;;;;;;;;;5037263;28;20488;-80
2022/02/06 13:56:33;;;;;;;3.83;1.57;;;;;;;;;;5037251;28;20402;-80
2022/02/06 13:59:00;;;;;;;4.20;1.60;;;;;;;;;;5038718;28;20489;-80
2022/02/06 14:01:38;;;;;;;2.37;1.30;;;;;;;;;;5037856;28;20897;-80
2022/02/06 14:04:06;;;;;;;3.10;1.43;;;;;;;;;;5037889;28;20405;-80
2022/02/06 14:06:39;;;;;;;2.83;1.20;;;;;;;;;;5038283;28;20415;-80
2022/02/06 14:09:22;;;;;;;1.67;1.27;;;;;;;;;;5038464;28;20894;-80
2022/02/06 14:11:58;;;;;;;2.37;1.30;;;;;;;;;;5038114;28;20423;-80
2022/02/06 14:14:25;;;;;;;4.17;1.47;;;;;;;;;;5038157;28;20438;-80
2022/02/06 14:16:54;;;;;;;2.10;1.20;;;;;;;;;;5037593;28;20415;-79
2022/02/06 14:19:42;;;;;;;3.20;1.37;;;;;;;;;;5038458;28;20409;-80
2022/02/06 14:22:08;;;;;;;2.00;1.50;;;;;;;;;;5038820;28;20458;-79
2022/02/06 14:24:47;;;;;;;4.33;1.60;;;;;;;;;;5048457;28;20415;-79
2022/02/06 14:27:15;;;;;;;1.60;1.13;;;;;;;;;;5045204;28;20409;-78
2022/02/06 14:29:56;;;;;;;5.53;1.77;;;;;;;;;;5037610;28;20399;-79
2022/02/06 14:32:24;;;;;;;3.20;1.37;;;;;;;;;;5036365;28;20446;-79
2022/02/06 14:35:13;;;;;;;7.53;4.50;;;;;;;;;;5038096;28;20900;-79
2022/02/06 14:37:46;;;;;;;2.63;1.30;;;;;;;;;;5037465;28;20475;-79
2022/02/06 14:40:28;;;;;;;6.80;1.47;;;;;;;;;;5036160;28;20414;-79
2022/02/06 14:42:58;;;;;;;2.17;1.30;;;;;;;;;;5037104;28;20875;-80
2022/02/06 14:45:24;;;;;;;2.47;1.20;;;;;;;;;;5035572;28;20422;-79
2022/02/06 14:47:50;;;;;;;1.90;1.20;;;;;;;;;;5037042;28;20435;-80
2022/02/06 14:50:19;;;;;;;3.20;1.70;;;;;;;;;;5037995;28;20504;-79
2022/02/06 14:52:47;;;;;;;11.47;1.57;;;;;;;;;;5037625;28;20468;-79
2022/02/06 14:55:13;;;;;;;3.40;1.37;;;;;;;;;;5036179;28;20918;-79
2022/02/06 14:57:40;;;;;;;2.07;1.00;;;;;;;;;;5037756;28;20406;-80
2022/02/06 15:00:07;;;;;;;3.20;1.43;;;;;;;;;;5037221;28;20402;-79
2022/02/06 15:02:33;;;;;;;2.30;1.20;;;;;;;;;;5037512;28;20912;-79
2022/02/06 15:04:59;;;;;;;1.60;1.20;;;;;;;;;;5037283;28;20441;-79
2022/02/06 15:07:29;;;;;;;2.50;1.30;;;;;;;;;;5035871;28;20413;-79
2022/02/06 15:09:56;;;;;;;3.60;1.53;;;;;;;;;;5037694;28;20399;-80
2022/02/06 15:12:23;;;;;;;2.30;1.27;;;;;;;;;;5037603;28;20453;-81
2022/02/06 15:14:49;;;;;;;3.03;1.47;;;;;;;;;;5037313;28;20475;-81
2022/02/06 15:17:19;;;;;;;6.10;1.70;;;;;;;;;;5035885;28;20465;-81
2022/02/06 15:19:46;;;;;;;1.63;1.00;;;;;;;;;;5041066;28;20418;-79
2022/02/06 15:22:12;;;;;;;3.67;1.10;;;;;;;;;;5040996;28;20477;-78
2022/02/06 15:24:38;;;;;;;2.60;1.40;;;;;;;;;;5041916;28;20407;-79
2022/02/06 15:27:04;;;;;;;1.60;1.07;;;;;;;;;;5041506;28;20401;-81
2022/02/06 15:29:30;;;;;;;2.20;1.20;;;;;;;;;;5040732;28;20415;-80
2022/02/06 15:31:57;;;;;;;3.90;1.80;;;;;;;;;;5042257;28;20481;-78
2022/02/06 15:34:26;;;;;;;2.30;1.40;;;;;;;;;;5040900;28;20927;-79
2022/02/06 15:36:53;;;;;;;11.10;1.20;;;;;;;;;;5041537;28;20433;-79
2022/02/06 15:39:25;;;;;;;2.47;1.10;;;;;;;;;;5041257;28;20399;-79
2022/02/06 15:41:54;;;;;;;1.90;1.17;;;;;;;;;;5041047;28;20453;-79
2022/02/06 15:44:20;;;;;;;1.93;1.20;;;;;;;;;;5040089;28;20491;-79
2022/02/06 15:46:47;;;;;;;1.80;1.30;;;;;;;;;;5040355;28;20968;-79
2022/02/06 15:49:13;;;;;;;2.20;1.20;;;;;;;;;;5041455;28;20403;-80
2022/02/06 15:51:39;;;;;;;2.50;1.27;;;;;;;;;;5040716;28;20446;-81
2022/02/06 15:54:07;;;;;;;1.97;1.30;;;;;;;;;;5041001;28;20498;-79
2022/02/06 15:56:33;;;;;;;2.33;1.57;;;;;;;;;;5039708;28;20480;-80
2022/02/06 15:58:59;;;;;;;1.73;1.23;;;;;;;;;;5040180;28;20906;-81
2022/02/06 16:01:26;;;;;;;1.87;1.27;;;;;;;;;;5044960;28;20473;-78
2022/02/06 16:03:52;;;;;;;2.40;1.40;;;;;;;;;;5049369;28;20430;-77
2022/02/06 16:06:19;;;;;;;1.67;1.00;;;;;;;;;;5049595;28;20429;-79
2022/02/06 16:08:45;;;;;;;2.33;1.43;;;;;;;;;;5045726;28;20425;-80
2022/02/06 16:11:11;;;;;;;4.60;1.33;;;;;;;;;;5038837;28;20450;-78
2022/02/06 16:13:38;;;;;;;4.03;1.43;;;;;;;;;;5041333;28;20403;-80
2022/02/06 16:16:04;;;;;;;1.50;1.20;;;;;;;;;;5040941;28;20407;-79
2022/02/06 16:18:30;;;;;;;1.60;1.20;;;;;;;;;;5040071;28;20411;-79
2022/02/06 16:20:56;;;;;;;1.50;1.10;;;;;;;;;;5039025;28;20516;-80
2022/02/06 16:23:24;;;;;;;2.53;1.30;;;;;;;;;;5040408;28;20524;-79
2022/02/06 16:25:50;;;;;;;2.70;1.63;;;;;;;;;;5040839;28;20449;-80
2022/02/06 16:28:16;;;;;;;2.13;1.20;;;;;;;;;;5039838;28;20406;-78
2022/02/06 16:30:42;;;;;;;1.70;0.90;;;;;;;;;;5037302;28;20521;-78
2022/02/06 16:33:08;;;;;;;1.50;1.20;;;;;;;;;;5039228;28;20779;-77
2022/02/06 16:35:34;;;;;;;1.40;0.90;;;;;;;;;;5040541;28;20407;-79
2022/02/06 16:38:00;;;;;;;3.07;1.10;;;;;;;;;;5040773;28;20411;-80
2022/02/06 16:40:27;;;;;;;2.30;1.30;;;;;;;;;;5039876;28;20414;-79
2022/02/06 16:42:53;;;;;;;2.43;0.90;;;;;;;;;;5040889;28;20402;-80
2022/02/06 16:45:20;;;;;;;1.90;1.13;;;;;;;;;;5040113;28;20399;-80
2022/02/06 16:47:46;;;;;;;1.50;0.90;;;;;;;;;;5040508;28;20883;-80
2022/02/06 16:50:12;;;;;;;1.43;0.97;;;;;;;;;;5039890;28;20395;-80
2022/02/06 16:52:38;;;;;;;1.83;1.30;;;;;;;;;;5039744;28;20446;-80
2022/02/06 16:55:05;;;;;;;1.60;1.00;;;;;;;;;;5040138;28;20894;-80
2022/02/06 16:57:31;;;;;;;6.03;1.20;;;;;;;;;;5040357;28;20433;-80
2022/02/06 16:59:57;;;;;;;1.57;1.07;;;;;;;;;;5040366;28;20409;-80
2022/02/06 17:02:24;;;;;;;2.00;0.90;;;;;;;;;;5040032;28;20470;-80
2022/02/06 17:04:51;;;;;;;2.37;1.47;;;;;;;;;;5040322;28;20891;-80
2022/02/06 17:07:17;;;;;;;1.40;1.00;;;;;;;;;;5040126;28;20407;-80
2022/02/06 17:09:43;;;;;;;4.20;1.30;;;;;;;;;;5038490;28;20414;-80
2022/02/06 17:12:11;;;;;;;2.43;1.20;;;;;;;;;;5042516;28;20455;-80
2022/02/06 17:14:37;;;;;;;1.53;1.17;;;;;;;;;;5039862;28;20411;-80
2022/02/06 17:17:06;;;;;;;2.87;1.17;;;;;;;;;;5040396;28;20490;-80
2022/02/06 17:19:32;;;;;;;1.77;1.00;;;;;;;;;;5046350;28;20407;-78
2022/02/06 17:21:58;;;;;;;1.90;1.20;;;;;;;;;;5047065;28;20554;-80
2022/02/06 17:24:27;;;;;;;3.30;1.07;;;;;;;;;;5040153;28;20410;-79
2022/02/06 17:26:53;;;;;;;1.57;0.90;;;;;;;;;;5039539;28;20544;-80
2022/02/06 17:29:20;;;;;;;1.80;1.23;;;;;;;;;;5041961;28;20407;-80
2022/02/06 17:31:47;;;;;;;1.93;1.00;;;;;;;;;;5040037;28;20427;-80
2022/02/06 17:34:15;;;;;;;1.80;1.03;;;;;;;;;;5041517;28;20486;-80
2022/02/06 17:36:41;;;;;;;1.70;1.10;;;;;;;;;;5040745;28;20506;-80
2022/02/06 17:39:07;;;;;;;2.33;1.27;;;;;;;;;;5039876;28;20781;-79
2022/02/06 17:41:33;;;;;;;2.33;1.10;;;;;;;;;;5039364;28;20442;-80
2022/02/06 17:43:59;;;;;;;2.33;1.37;;;;;;;;;;5039798;28;20399;-79